Greenbackville, Virginia
Current Conditions -  °F | °C
As of 5:54 PM on Tuesday 21 Oct 2014 (Local Time) from KWAL Reporting Station
Clear Clear  
Wind Chill: 19°   Ceiling: Unl
Heat Index: 19°   Visibility: 10mi
Dew Point: 10°   Wind: 3mph
Humidity: 54%   Direction: 280°W
Pressure: 29.82"   Gusts: NA
Location:  38.01°N, 75.39°W
Report Text: KWAL 212154Z AUTO 28003KT 10SM CLR 19/10 A2982 RMK AO2 SLP093 T01940100
Loading
Personal Weather Stations






























Interactive Weather Map
Tropical Storm Tracking
New forecast layout! Learn more

10-Day Weather Forecast

Advertisements
Track Severe Weather on mobile